sensor_id;sensor_type;location;lat;lon;timestamp;temperature;humidity
33594;DHT22;19920;52.242;20.940;2023-12-29T00:01:32;6.40;99.90
33594;DHT22;19920;52.242;20.940;2023-12-29T00:03:58;6.40;99.90
33594;DHT22;19920;52.242;20.940;2023-12-29T00:06:23;6.50;99.90
33594;DHT22;19920;52.242;20.940;2023-12-29T00:08:49;6.50;99.90
33594;DHT22;19920;52.242;20.940;2023-12-29T00:11:21;6.40;99.90
33594;DHT22;19920;52.242;20.940;2023-12-29T00:13:47;6.40;99.90
33594;DHT22;19920;52.242;20.940;2023-12-29T00:16:14;6.40;99.90
33594;DHT22;19920;52.242;20.940;2023-12-29T00:18:40;6.40;99.90
33594;DHT22;19920;52.242;20.940;2023-12-29T00:21:05;6.40;99.90
33594;DHT22;19920;52.242;20.940;2023-12-29T00:23:31;6.40;99.90
33594;DHT22;19920;52.242;20.940;2023-12-29T00:25:57;6.50;99.90
33594;DHT22;19920;52.242;20.940;2023-12-29T00:28:22;6.50;99.90
33594;DHT22;19920;52.242;20.940;2023-12-29T00:30:48;6.50;99.90
33594;DHT22;19920;52.242;20.940;2023-12-29T00:33:13;6.50;99.90
33594;DHT22;19920;52.242;20.940;2023-12-29T00:35:39;6.40;99.90
33594;DHT22;19920;52.242;20.940;2023-12-29T00:38:05;6.40;99.90
33594;DHT22;19920;52.242;20.940;2023-12-29T00:40:31;6.50;99.90
33594;DHT22;19920;52.242;20.940;2023-12-29T00:42:57;6.50;99.90
33594;DHT22;19920;52.242;20.940;2023-12-29T00:45:23;6.50;99.90
33594;DHT22;19920;52.242;20.940;2023-12-29T00:47:48;6.50;99.90
33594;DHT22;19920;52.242;20.940;2023-12-29T00:50:16;6.50;99.90
33594;DHT22;19920;52.242;20.940;2023-12-29T00:52:41;6.40;99.90
33594;DHT22;19920;52.242;20.940;2023-12-29T00:55:07;6.50;99.90
33594;DHT22;19920;52.242;20.940;2023-12-29T00:57:33;6.50;99.90
33594;DHT22;19920;52.242;20.940;2023-12-29T00:59:59;6.60;99.90
33594;DHT22;19920;52.242;20.940;2023-12-29T01:02:25;6.60;99.90
33594;DHT22;19920;52.242;20.940;2023-12-29T01:04:51;6.60;99.90
33594;DHT22;19920;52.242;20.940;2023-12-29T01:07:16;6.60;99.90
33594;DHT22;19920;52.242;20.940;2023-12-29T01:09:42;6.60;99.90
33594;DHT22;19920;52.242;20.940;2023-12-29T01:12:07;6.60;99.90
33594;DHT22;19920;52.242;20.940;2023-12-29T01:14:33;6.60;99.90
33594;DHT22;19920;52.242;20.940;2023-12-29T01:16:58;6.60;99.90
33594;DHT22;19920;52.242;20.940;2023-12-29T01:19:24;6.60;99.90
33594;DHT22;19920;52.242;20.940;2023-12-29T01:21:49;6.60;99.90
33594;DHT22;19920;52.242;20.940;2023-12-29T01:24:15;6.60;99.90
33594;DHT22;19920;52.242;20.940;2023-12-29T01:26:40;6.60;99.90
33594;DHT22;19920;52.242;20.940;2023-12-29T01:29:06;6.60;99.90
33594;DHT22;19920;52.242;20.940;2023-12-29T01:31:32;6.60;99.90
33594;DHT22;19920;52.242;20.940;2023-12-29T01:33:58;6.60;99.90
33594;DHT22;19920;52.242;20.940;2023-12-29T01:36:23;6.60;99.90
33594;DHT22;19920;52.242;20.940;2023-12-29T01:38:49;6.50;99.90
33594;DHT22;19920;52.242;20.940;2023-12-29T01:41:14;6.40;99.90
33594;DHT22;19920;52.242;20.940;2023-12-29T01:44:17;6.40;99.90
33594;DHT22;19920;52.242;20.940;2023-12-29T01:46:42;6.40;99.90
33594;DHT22;19920;52.242;20.940;2023-12-29T01:49:08;6.40;99.90
33594;DHT22;19920;52.242;20.940;2023-12-29T01:51:34;6.40;99.90
33594;DHT22;19920;52.242;20.940;2023-12-29T01:53:59;6.30;99.90
33594;DHT22;19920;52.242;20.940;2023-12-29T01:56:25;6.40;99.90
33594;DHT22;19920;52.242;20.940;2023-12-29T01:58:51;6.40;99.90
33594;DHT22;19920;52.242;20.940;2023-12-29T02:01:18;6.40;99.90
33594;DHT22;19920;52.242;20.940;2023-12-29T02:03:44;6.40;99.90
33594;DHT22;19920;52.242;20.940;2023-12-29T02:06:10;6.40;99.90
33594;DHT22;19920;52.242;20.940;2023-12-29T02:08:40;6.50;99.90
33594;DHT22;19920;52.242;20.940;2023-12-29T02:11:06;6.30;99.90
33594;DHT22;19920;52.242;20.940;2023-12-29T02:13:32;6.30;99.90
33594;DHT22;19920;52.242;20.940;2023-12-29T02:16:04;6.30;99.90
33594;DHT22;19920;52.242;20.940;2023-12-29T02:18:34;6.30;99.90
33594;DHT22;19920;52.242;20.940;2023-12-29T02:21:02;6.20;99.90
33594;DHT22;19920;52.242;20.940;2023-12-29T02:23:28;6.20;99.90
33594;DHT22;19920;52.242;20.940;2023-12-29T02:25:57;6.10;99.90
33594;DHT22;19920;52.242;20.940;2023-12-29T02:28:25;6.10;99.90
33594;DHT22;19920;52.242;20.940;2023-12-29T02:31:00;6.00;99.90
33594;DHT22;19920;52.242;20.940;2023-12-29T02:33:27;6.10;99.90
33594;DHT22;19920;52.242;20.940;2023-12-29T02:35:56;6.10;99.90
33594;DHT22;19920;52.242;20.940;2023-12-29T02:38:22;6.00;99.90
33594;DHT22;19920;52.242;20.940;2023-12-29T02:40:48;6.00;99.90
33594;DHT22;19920;52.242;20.940;2023-12-29T02:43:13;5.90;99.90
33594;DHT22;19920;52.242;20.940;2023-12-29T02:45:39;5.90;99.90
33594;DHT22;19920;52.242;20.940;2023-12-29T02:48:05;5.90;99.90
33594;DHT22;19920;52.242;20.940;2023-12-29T02:50:31;5.80;99.90
33594;DHT22;19920;52.242;20.940;2023-12-29T02:52:56;5.80;99.90
33594;DHT22;19920;52.242;20.940;2023-12-29T02:55:22;5.80;99.90
33594;DHT22;19920;52.242;20.940;2023-12-29T02:57:48;5.70;99.90
33594;DHT22;19920;52.242;20.940;2023-12-29T03:00:13;5.70;99.90
33594;DHT22;19920;52.242;20.940;2023-12-29T03:02:39;5.70;99.90
33594;DHT22;19920;52.242;20.940;2023-12-29T03:05:05;5.60;99.90
33594;DHT22;19920;52.242;20.940;2023-12-29T03:07:31;5.60;99.90
33594;DHT22;19920;52.242;20.940;2023-12-29T03:09:57;5.60;99.90
33594;DHT22;19920;52.242;20.940;2023-12-29T03:12:22;5.60;99.90
33594;DHT22;19920;52.242;20.940;2023-12-29T03:14:48;5.50;99.90
33594;DHT22;19920;52.242;20.940;2023-12-29T03:17:13;5.40;99.90
33594;DHT22;19920;52.242;20.940;2023-12-29T03:19:39;5.40;99.90
33594;DHT22;19920;52.242;20.940;2023-12-29T03:22:05;5.30;99.90
33594;DHT22;19920;52.242;20.940;2023-12-29T03:24:30;5.30;99.90
33594;DHT22;19920;52.242;20.940;2023-12-29T03:26:56;5.30;99.90
33594;DHT22;19920;52.242;20.940;2023-12-29T03:29:22;5.20;99.90
33594;DHT22;19920;52.242;20.940;2023-12-29T03:31:47;5.20;99.90
33594;DHT22;19920;52.242;20.940;2023-12-29T03:34:13;5.10;99.90
33594;DHT22;19920;52.242;20.940;2023-12-29T03:36:39;5.10;99.90
33594;DHT22;19920;52.242;20.940;2023-12-29T03:39:04;5.10;99.90
33594;DHT22;19920;52.242;20.940;2023-12-29T03:41:30;5.10;99.90
33594;DHT22;19920;52.242;20.940;2023-12-29T03:43:55;5.00;99.90
33594;DHT22;19920;52.242;20.940;2023-12-29T03:46:22;5.00;99.90
33594;DHT22;19920;52.242;20.940;2023-12-29T03:48:48;5.00;99.90
33594;DHT22;19920;52.242;20.940;2023-12-29T03:51:14;4.90;99.90
33594;DHT22;19920;52.242;20.940;2023-12-29T03:53:40;4.90;99.90
33594;DHT22;19920;52.242;20.940;2023-12-29T03:56:14;4.80;99.90
33594;DHT22;19920;52.242;20.940;2023-12-29T03:58:39;4.90;99.90
33594;DHT22;19920;52.242;20.940;2023-12-29T04:01:10;4.90;99.90
33594;DHT22;19920;52.242;20.940;2023-12-29T04:03:36;4.90;99.90
33594;DHT22;19920;52.242;20.940;2023-12-29T04:06:02;4.80;99.90
33594;DHT22;19920;52.242;20.940;2023-12-29T04:08:27;4.80;99.90
33594;DHT22;19920;52.242;20.940;2023-12-29T04:10:53;4.90;99.90
33594;DHT22;19920;52.242;20.940;2023-12-29T04:13:19;4.90;99.90
33594;DHT22;19920;52.242;20.940;2023-12-29T04:15:44;4.80;99.90
33594;DHT22;19920;52.242;20.940;2023-12-29T04:18:10;4.80;99.90
33594;DHT22;19920;52.242;20.940;2023-12-29T04:20:35;4.80;99.90
33594;DHT22;19920;52.242;20.940;2023-12-29T04:23:01;4.80;99.90
33594;DHT22;19920;52.242;20.940;2023-12-29T04:25:26;4.80;99.90
33594;DHT22;19920;52.242;20.940;2023-12-29T04:27:52;4.80;99.90
33594;DHT22;19920;52.242;20.940;2023-12-29T04:30:17;4.90;99.90
33594;DHT22;19920;52.242;20.940;2023-12-29T04:32:43;4.80;99.90
33594;DHT22;19920;52.242;20.940;2023-12-29T04:35:08;4.80;99.90
33594;DHT22;19920;52.242;20.940;2023-12-29T04:37:38;4.80;99.90
33594;DHT22;19920;52.242;20.940;2023-12-29T04:40:04;4.80;99.90
33594;DHT22;19920;52.242;20.940;2023-12-29T04:42:30;4.80;99.90
33594;DHT22;19920;52.242;20.940;2023-12-29T04:44:56;4.80;99.90
33594;DHT22;19920;52.242;20.940;2023-12-29T04:47:21;4.80;99.90
33594;DHT22;19920;52.242;20.940;2023-12-29T04:49:47;4.80;99.90
33594;DHT22;19920;52.242;20.940;2023-12-29T04:52:12;4.80;99.90
33594;DHT22;19920;52.242;20.940;2023-12-29T04:54:38;4.70;99.90
33594;DHT22;19920;52.242;20.940;2023-12-29T04:57:04;4.70;99.90
33594;DHT22;19920;52.242;20.940;2023-12-29T04:59:30;4.70;99.90
33594;DHT22;19920;52.242;20.940;2023-12-29T05:01:55;4.70;99.90
33594;DHT22;19920;52.242;20.940;2023-12-29T05:04:21;4.80;99.90
33594;DHT22;19920;52.242;20.940;2023-12-29T05:06:46;4.90;99.90
33594;DHT22;19920;52.242;20.940;2023-12-29T05:09:12;5.00;99.90
33594;DHT22;19920;52.242;20.940;2023-12-29T05:11:37;5.00;99.90
33594;DHT22;19920;52.242;20.940;2023-12-29T05:14:03;5.10;99.90
33594;DHT22;19920;52.242;20.940;2023-12-29T05:16:28;5.20;99.90
33594;DHT22;19920;52.242;20.940;2023-12-29T05:18:54;5.30;99.90
33594;DHT22;19920;52.242;20.940;2023-12-29T05:21:19;5.30;99.90
33594;DHT22;19920;52.242;20.940;2023-12-29T05:23:46;5.30;99.90
33594;DHT22;19920;52.242;20.940;2023-12-29T05:26:16;5.40;99.90
33594;DHT22;19920;52.242;20.940;2023-12-29T05:28:41;5.40;99.90
33594;DHT22;19920;52.242;20.940;2023-12-29T05:31:07;5.50;99.90
33594;DHT22;19920;52.242;20.940;2023-12-29T05:33:33;5.60;99.90
33594;DHT22;19920;52.242;20.940;2023-12-29T05:36:04;5.60;99.90
33594;DHT22;19920;52.242;20.940;2023-12-29T05:38:31;5.60;99.90
33594;DHT22;19920;52.242;20.940;2023-12-29T05:40:56;5.80;99.90
33594;DHT22;19920;52.242;20.940;2023-12-29T05:43:22;5.90;99.90
33594;DHT22;19920;52.242;20.940;2023-12-29T05:45:48;6.00;99.90
33594;DHT22;19920;52.242;20.940;2023-12-29T05:48:13;6.00;99.90
33594;DHT22;19920;52.242;20.940;2023-12-29T05:50:39;6.10;99.90
33594;DHT22;19920;52.242;20.940;2023-12-29T05:53:04;6.20;99.90
33594;DHT22;19920;52.242;20.940;2023-12-29T05:55:31;6.30;99.90
33594;DHT22;19920;52.242;20.940;2023-12-29T05:57:56;6.40;99.90
33594;DHT22;19920;52.242;20.940;2023-12-29T06:00:22;6.50;99.90
33594;DHT22;19920;52.242;20.940;2023-12-29T06:02:48;6.60;99.90
33594;DHT22;19920;52.242;20.940;2023-12-29T06:05:13;6.70;99.90
33594;DHT22;19920;52.242;20.940;2023-12-29T06:07:39;6.70;99.90
33594;DHT22;19920;52.242;20.940;2023-12-29T06:10:05;6.80;99.90
33594;DHT22;19920;52.242;20.940;2023-12-29T06:12:31;6.90;99.90
33594;DHT22;19920;52.242;20.940;2023-12-29T06:14:56;6.90;99.90
33594;DHT22;19920;52.242;20.940;2023-12-29T06:17:22;7.00;99.90
33594;DHT22;19920;52.242;20.940;2023-12-29T06:19:47;7.00;99.90
33594;DHT22;19920;52.242;20.940;2023-12-29T06:22:13;7.00;99.90
33594;DHT22;19920;52.242;20.940;2023-12-29T06:24:42;7.10;99.90
33594;DHT22;19920;52.242;20.940;2023-12-29T06:27:09;7.10;99.90
33594;DHT22;19920;52.242;20.940;2023-12-29T06:29:35;7.10;99.90
33594;DHT22;19920;52.242;20.940;2023-12-29T06:32:01;7.10;99.90
33594;DHT22;19920;52.242;20.940;2023-12-29T06:34:26;7.10;99.90
33594;DHT22;19920;52.242;20.940;2023-12-29T06:36:52;7.10;99.90
33594;DHT22;19920;52.242;20.940;2023-12-29T06:39:17;7.00;99.90
33594;DHT22;19920;52.242;20.940;2023-12-29T06:41:43;7.00;99.90
33594;DHT22;19920;52.242;20.940;2023-12-29T06:44:08;6.90;99.90
33594;DHT22;19920;52.242;20.940;2023-12-29T06:46:37;7.00;99.90
33594;DHT22;19920;52.242;20.940;2023-12-29T06:49:02;7.00;99.90
33594;DHT22;19920;52.242;20.940;2023-12-29T06:51:28;6.90;99.90
33594;DHT22;19920;52.242;20.940;2023-12-29T06:53:54;6.90;99.90
33594;DHT22;19920;52.242;20.940;2023-12-29T06:56:19;7.00;99.90
33594;DHT22;19920;52.242;20.940;2023-12-29T06:58:45;7.00;99.90
33594;DHT22;19920;52.242;20.940;2023-12-29T07:01:11;7.00;99.90
33594;DHT22;19920;52.242;20.940;2023-12-29T07:03:37;7.00;99.90
33594;DHT22;19920;52.242;20.940;2023-12-29T07:06:03;6.90;99.90
33594;DHT22;19920;52.242;20.940;2023-12-29T07:08:29;6.90;99.90
33594;DHT22;19920;52.242;20.940;2023-12-29T07:10:54;6.90;99.90
33594;DHT22;19920;52.242;20.940;2023-12-29T07:13:20;6.90;99.90
33594;DHT22;19920;52.242;20.940;2023-12-29T07:15:47;7.00;99.90
33594;DHT22;19920;52.242;20.940;2023-12-29T07:18:14;7.10;99.90
33594;DHT22;19920;52.242;20.940;2023-12-29T07:20:41;7.10;99.90
33594;DHT22;19920;52.242;20.940;2023-12-29T07:23:07;7.10;99.90
33594;DHT22;19920;52.242;20.940;2023-12-29T07:25:33;7.20;99.90
33594;DHT22;19920;52.242;20.940;2023-12-29T07:27:58;7.20;99.90
33594;DHT22;19920;52.242;20.940;2023-12-29T07:30:24;7.30;99.90
33594;DHT22;19920;52.242;20.940;2023-12-29T07:32:49;7.30;99.90
33594;DHT22;19920;52.242;20.940;2023-12-29T07:35:16;7.30;99.90
33594;DHT22;19920;52.242;20.940;2023-12-29T07:37:43;7.30;99.90
33594;DHT22;19920;52.242;20.940;2023-12-29T07:40:13;7.20;99.90
33594;DHT22;19920;52.242;20.940;2023-12-29T07:42:40;7.30;99.90
33594;DHT22;19920;52.242;20.940;2023-12-29T07:45:06;7.30;99.90
33594;DHT22;19920;52.242;20.940;2023-12-29T07:47:32;7.20;99.90
33594;DHT22;19920;52.242;20.940;2023-12-29T07:49:57;7.30;99.90
33594;DHT22;19920;52.242;20.940;2023-12-29T07:52:23;7.20;99.90
33594;DHT22;19920;52.242;20.940;2023-12-29T07:54:49;7.20;99.90
33594;DHT22;19920;52.242;20.940;2023-12-29T07:57:14;7.10;99.90
33594;DHT22;19920;52.242;20.940;2023-12-29T07:59:40;7.10;99.90
33594;DHT22;19920;52.242;20.940;2023-12-29T08:02:06;7.20;99.90
33594;DHT22;19920;52.242;20.940;2023-12-29T08:04:32;7.20;99.90
33594;DHT22;19920;52.242;20.940;2023-12-29T08:06:58;7.30;99.90
33594;DHT22;19920;52.242;20.940;2023-12-29T08:09:23;7.40;99.90
33594;DHT22;19920;52.242;20.940;2023-12-29T08:11:49;7.50;99.90
33594;DHT22;19920;52.242;20.940;2023-12-29T08:14:15;7.50;99.90
33594;DHT22;19920;52.242;20.940;2023-12-29T08:16:41;7.60;99.90
33594;DHT22;19920;52.242;20.940;2023-12-29T08:19:07;7.60;99.90
33594;DHT22;19920;52.242;20.940;2023-12-29T08:21:33;7.80;99.90
33594;DHT22;19920;52.242;20.940;2023-12-29T08:23:59;7.80;99.90
33594;DHT22;19920;52.242;20.940;2023-12-29T08:26:24;8.00;99.90
33594;DHT22;19920;52.242;20.940;2023-12-29T08:28:51;8.00;99.90
33594;DHT22;19920;52.242;20.940;2023-12-29T08:31:18;8.10;99.90
33594;DHT22;19920;52.242;20.940;2023-12-29T08:33:44;8.10;99.90
33594;DHT22;19920;52.242;20.940;2023-12-29T08:36:11;8.10;99.90
33594;DHT22;19920;52.242;20.940;2023-12-29T08:38:37;8.20;99.90
33594;DHT22;19920;52.242;20.940;2023-12-29T08:41:03;8.20;99.90
33594;DHT22;19920;52.242;20.940;2023-12-29T08:43:29;8.20;99.90
33594;DHT22;19920;52.242;20.940;2023-12-29T08:45:56;8.30;99.90
33594;DHT22;19920;52.242;20.940;2023-12-29T08:48:22;8.30;99.90
33594;DHT22;19920;52.242;20.940;2023-12-29T08:50:48;8.30;99.90
33594;DHT22;19920;52.242;20.940;2023-12-29T08:53:14;8.30;99.90
33594;DHT22;19920;52.242;20.940;2023-12-29T08:55:41;8.20;99.90
33594;DHT22;19920;52.242;20.940;2023-12-29T08:58:06;8.20;99.90
33594;DHT22;19920;52.242;20.940;2023-12-29T09:00:32;8.20;99.90
33594;DHT22;19920;52.242;20.940;2023-12-29T09:02:57;8.10;99.90
33594;DHT22;19920;52.242;20.940;2023-12-29T09:05:23;8.20;99.90
33594;DHT22;19920;52.242;20.940;2023-12-29T09:07:49;8.10;99.90
33594;DHT22;19920;52.242;20.940;2023-12-29T09:10:14;8.10;99.90
33594;DHT22;19920;52.242;20.940;2023-12-29T09:12:40;8.00;99.90
33594;DHT22;19920;52.242;20.940;2023-12-29T09:15:07;8.00;99.90
33594;DHT22;19920;52.242;20.940;2023-12-29T09:17:33;8.00;99.90
33594;DHT22;19920;52.242;20.940;2023-12-29T09:19:58;8.10;99.90
33594;DHT22;19920;52.242;20.940;2023-12-29T09:22:24;8.10;99.90
33594;DHT22;19920;52.242;20.940;2023-12-29T09:24:50;8.20;99.90
33594;DHT22;19920;52.242;20.940;2023-12-29T09:27:15;8.20;99.90
33594;DHT22;19920;52.242;20.940;2023-12-29T09:29:41;8.20;99.90
33594;DHT22;19920;52.242;20.940;2023-12-29T09:32:07;8.30;99.90
33594;DHT22;19920;52.242;20.940;2023-12-29T09:34:32;8.40;99.90
33594;DHT22;19920;52.242;20.940;2023-12-29T09:36:58;8.40;99.90
33594;DHT22;19920;52.242;20.940;2023-12-29T09:39:23;8.40;99.90
33594;DHT22;19920;52.242;20.940;2023-12-29T09:41:51;8.60;99.90
33594;DHT22;19920;52.242;20.940;2023-12-29T09:44:20;8.60;99.90
33594;DHT22;19920;52.242;20.940;2023-12-29T09:46:49;8.70;99.90
33594;DHT22;19920;52.242;20.940;2023-12-29T09:49:16;8.70;99.90
33594;DHT22;19920;52.242;20.940;2023-12-29T09:51:44;8.70;99.90
33594;DHT22;19920;52.242;20.940;2023-12-29T09:54:10;8.80;99.90
33594;DHT22;19920;52.242;20.940;2023-12-29T09:56:37;8.90;99.90
33594;DHT22;19920;52.242;20.940;2023-12-29T09:59:03;8.90;99.90
33594;DHT22;19920;52.242;20.940;2023-12-29T10:01:29;8.90;99.90
33594;DHT22;19920;52.242;20.940;2023-12-29T10:03:56;8.90;99.90
33594;DHT22;19920;52.242;20.940;2023-12-29T10:06:24;9.00;99.90
33594;DHT22;19920;52.242;20.940;2023-12-29T10:08:50;9.00;99.90
33594;DHT22;19920;52.242;20.940;2023-12-29T10:11:18;9.10;99.90
33594;DHT22;19920;52.242;20.940;2023-12-29T10:13:50;9.20;99.90
33594;DHT22;19920;52.242;20.940;2023-12-29T10:16:41;9.30;99.90
33594;DHT22;19920;52.242;20.940;2023-12-29T10:19:23;9.40;99.90
33594;DHT22;19920;52.242;20.940;2023-12-29T10:22:18;9.40;99.90
33594;DHT22;19920;52.242;20.940;2023-12-29T10:24:46;9.50;99.90
33594;DHT22;19920;52.242;20.940;2023-12-29T10:27:12;9.50;99.90
33594;DHT22;19920;52.242;20.940;2023-12-29T10:29:38;9.40;99.90
33594;DHT22;19920;52.242;20.940;2023-12-29T10:32:04;9.40;99.90
33594;DHT22;19920;52.242;20.940;2023-12-29T10:34:29;9.30;99.90
33594;DHT22;19920;52.242;20.940;2023-12-29T10:36:57;9.30;99.90
33594;DHT22;19920;52.242;20.940;2023-12-29T10:39:24;9.40;99.90
33594;DHT22;19920;52.242;20.940;2023-12-29T10:41:50;9.50;99.90
33594;DHT22;19920;52.242;20.940;2023-12-29T10:44:16;9.50;99.90
33594;DHT22;19920;52.242;20.940;2023-12-29T10:46:42;9.50;99.90
33594;DHT22;19920;52.242;20.940;2023-12-29T10:49:12;9.50;99.90
33594;DHT22;19920;52.242;20.940;2023-12-29T10:51:38;9.50;99.90
33594;DHT22;19920;52.242;20.940;2023-12-29T10:54:04;9.50;99.90
33594;DHT22;19920;52.242;20.940;2023-12-29T10:56:31;9.50;99.90
33594;DHT22;19920;52.242;20.940;2023-12-29T10:59:03;9.50;99.90
33594;DHT22;19920;52.242;20.940;2023-12-29T11:01:34;9.60;99.90
33594;DHT22;19920;52.242;20.940;2023-12-29T11:04:06;9.60;99.90
33594;DHT22;19920;52.242;20.940;2023-12-29T11:06:43;9.60;99.90
33594;DHT22;19920;52.242;20.940;2023-12-29T11:09:10;9.70;99.90
33594;DHT22;19920;52.242;20.940;2023-12-29T11:11:37;9.70;99.90
33594;DHT22;19920;52.242;20.940;2023-12-29T11:14:03;9.80;99.90
33594;DHT22;19920;52.242;20.940;2023-12-29T11:16:30;9.90;99.90
33594;DHT22;19920;52.242;20.940;2023-12-29T11:18:58;10.00;99.90
33594;DHT22;19920;52.242;20.940;2023-12-29T11:21:26;10.10;99.90
33594;DHT22;19920;52.242;20.940;2023-12-29T11:23:52;10.10;99.90
33594;DHT22;19920;52.242;20.940;2023-12-29T11:26:18;10.20;99.90
33594;DHT22;19920;52.242;20.940;2023-12-29T11:28:46;10.20;99.90
33594;DHT22;19920;52.242;20.940;2023-12-29T11:31:18;10.20;99.90
33594;DHT22;19920;52.242;20.940;2023-12-29T11:33:52;10.10;99.90
33594;DHT22;19920;52.242;20.940;2023-12-29T11:36:27;10.10;99.90
33594;DHT22;19920;52.242;20.940;2023-12-29T11:41:40;10.10;99.90
33594;DHT22;19920;52.242;20.940;2023-12-29T11:44:06;10.00;99.90
33594;DHT22;19920;52.242;20.940;2023-12-29T11:48:58;10.10;99.90
33594;DHT22;19920;52.242;20.940;2023-12-29T11:51:34;10.10;99.90
33594;DHT22;19920;52.242;20.940;2023-12-29T11:54:01;10.20;99.90
33594;DHT22;19920;52.242;20.940;2023-12-29T11:56:34;10.20;99.90
33594;DHT22;19920;52.242;20.940;2023-12-29T12:01:41;10.30;99.90
33594;DHT22;19920;52.242;20.940;2023-12-29T12:07:03;10.30;99.90
33594;DHT22;19920;52.242;20.940;2023-12-29T12:09:29;10.30;99.90
33594;DHT22;19920;52.242;20.940;2023-12-29T12:11:54;10.40;99.90
33594;DHT22;19920;52.242;20.940;2023-12-29T12:17:10;10.20;99.90
33594;DHT22;19920;52.242;20.940;2023-12-29T12:19:36;10.10;99.90
33594;DHT22;19920;52.242;20.940;2023-12-29T12:22:02;10.20;99.90
33594;DHT22;19920;52.242;20.940;2023-12-29T12:24:28;10.20;99.90
33594;DHT22;19920;52.242;20.940;2023-12-29T12:26:54;10.20;99.90
33594;DHT22;19920;52.242;20.940;2023-12-29T12:29:20;10.20;99.90
33594;DHT22;19920;52.242;20.940;2023-12-29T12:31:56;10.20;99.90
33594;DHT22;19920;52.242;20.940;2023-12-29T12:34:22;10.20;99.90
33594;DHT22;19920;52.242;20.940;2023-12-29T12:36:49;10.20;99.90
33594;DHT22;19920;52.242;20.940;2023-12-29T12:39:16;10.20;99.90
33594;DHT22;19920;52.242;20.940;2023-12-29T12:41:41;10.20;99.90
33594;DHT22;19920;52.242;20.940;2023-12-29T12:44:11;10.20;99.90
33594;DHT22;19920;52.242;20.940;2023-12-29T12:49:13;10.20;99.90
33594;DHT22;19920;52.242;20.940;2023-12-29T12:51:39;10.30;99.90
33594;DHT22;19920;52.242;20.940;2023-12-29T12:54:05;10.30;99.90
33594;DHT22;19920;52.242;20.940;2023-12-29T12:56:31;10.40;99.90
33594;DHT22;19920;52.242;20.940;2023-12-29T12:58:57;10.40;99.90
33594;DHT22;19920;52.242;20.940;2023-12-29T13:01:24;10.40;99.90
33594;DHT22;19920;52.242;20.940;2023-12-29T13:03:50;10.40;99.90
33594;DHT22;19920;52.242;20.940;2023-12-29T13:06:16;10.50;99.90
33594;DHT22;19920;52.242;20.940;2023-12-29T13:08:43;10.50;99.90
33594;DHT22;19920;52.242;20.940;2023-12-29T13:11:09;10.40;99.90
33594;DHT22;19920;52.242;20.940;2023-12-29T13:13:42;10.50;99.90
33594;DHT22;19920;52.242;20.940;2023-12-29T13:16:08;10.40;99.90
33594;DHT22;19920;52.242;20.940;2023-12-29T13:18:34;10.40;99.90
33594;DHT22;19920;52.242;20.940;2023-12-29T13:21:01;10.30;99.90
33594;DHT22;19920;52.242;20.940;2023-12-29T13:23:28;10.30;99.90
33594;DHT22;19920;52.242;20.940;2023-12-29T13:26:05;10.30;99.90
33594;DHT22;19920;52.242;20.940;2023-12-29T13:28:33;10.30;99.90
33594;DHT22;19920;52.242;20.940;2023-12-29T13:30:59;10.30;99.90
33594;DHT22;19920;52.242;20.940;2023-12-29T13:36:12;10.30;99.90
33594;DHT22;19920;52.242;20.940;2023-12-29T13:38:53;10.40;99.90
33594;DHT22;19920;52.242;20.940;2023-12-29T13:41:19;10.30;99.90
33594;DHT22;19920;52.242;20.940;2023-12-29T13:43:47;10.30;99.90
33594;DHT22;19920;52.242;20.940;2023-12-29T13:46:15;10.30;99.90
33594;DHT22;19920;52.242;20.940;2023-12-29T13:48:41;10.30;99.90
33594;DHT22;19920;52.242;20.940;2023-12-29T13:51:08;10.30;99.90
33594;DHT22;19920;52.242;20.940;2023-12-29T13:53:33;10.30;99.90
33594;DHT22;19920;52.242;20.940;2023-12-29T13:56:09;10.30;99.90
33594;DHT22;19920;52.242;20.940;2023-12-29T13:58:35;10.30;99.90
33594;DHT22;19920;52.242;20.940;2023-12-29T14:01:04;10.30;99.90
33594;DHT22;19920;52.242;20.940;2023-12-29T14:03:42;10.20;99.90
33594;DHT22;19920;52.242;20.940;2023-12-29T14:06:13;10.20;99.90
33594;DHT22;19920;52.242;20.940;2023-12-29T14:08:45;10.20;99.90
33594;DHT22;19920;52.242;20.940;2023-12-29T14:11:11;10.10;99.90
33594;DHT22;19920;52.242;20.940;2023-12-29T14:13:45;10.00;99.90
33594;DHT22;19920;52.242;20.940;2023-12-29T14:16:11;10.00;99.90
33594;DHT22;19920;52.242;20.940;2023-12-29T14:21:43;9.90;99.90
33594;DHT22;19920;52.242;20.940;2023-12-29T14:24:14;10.00;99.90
33594;DHT22;19920;52.242;20.940;2023-12-29T14:26:53;10.00;99.90
33594;DHT22;19920;52.242;20.940;2023-12-29T14:29:22;10.00;99.90
33594;DHT22;19920;52.242;20.940;2023-12-29T14:31:48;10.00;99.90
33594;DHT22;19920;52.242;20.940;2023-12-29T14:34:17;10.10;99.90
33594;DHT22;19920;52.242;20.940;2023-12-29T14:36:44;10.10;99.90
33594;DHT22;19920;52.242;20.940;2023-12-29T14:39:11;10.10;99.90
33594;DHT22;19920;52.242;20.940;2023-12-29T14:41:37;10.00;99.90
33594;DHT22;19920;52.242;20.940;2023-12-29T14:44:03;9.90;99.90
33594;DHT22;19920;52.242;20.940;2023-12-29T14:46:28;10.00;99.90
33594;DHT22;19920;52.242;20.940;2023-12-29T14:48:57;10.00;99.90
33594;DHT22;19920;52.242;20.940;2023-12-29T14:51:23;9.90;99.90
33594;DHT22;19920;52.242;20.940;2023-12-29T14:53:49;9.80;99.90
33594;DHT22;19920;52.242;20.940;2023-12-29T14:56:15;9.80;99.90
33594;DHT22;19920;52.242;20.940;2023-12-29T14:58:41;9.70;99.90
33594;DHT22;19920;52.242;20.940;2023-12-29T15:01:08;9.70;99.90
33594;DHT22;19920;52.242;20.940;2023-12-29T15:03:34;9.70;99.90
33594;DHT22;19920;52.242;20.940;2023-12-29T15:06:00;9.70;99.90
33594;DHT22;19920;52.242;20.940;2023-12-29T15:08:26;9.70;99.90
33594;DHT22;19920;52.242;20.940;2023-12-29T15:10:53;9.60;99.90
33594;DHT22;19920;52.242;20.940;2023-12-29T15:13:19;9.70;99.90
33594;DHT22;19920;52.242;20.940;2023-12-29T15:15:45;9.70;99.90
33594;DHT22;19920;52.242;20.940;2023-12-29T15:18:10;9.70;99.90
33594;DHT22;19920;52.242;20.940;2023-12-29T15:20:36;9.60;99.90
33594;DHT22;19920;52.242;20.940;2023-12-29T15:23:01;9.50;99.90
33594;DHT22;19920;52.242;20.940;2023-12-29T15:25:28;9.50;99.90
33594;DHT22;19920;52.242;20.940;2023-12-29T15:27:53;9.50;99.90
33594;DHT22;19920;52.242;20.940;2023-12-29T15:30:19;9.50;99.90
33594;DHT22;19920;52.242;20.940;2023-12-29T15:32:45;9.50;99.90
33594;DHT22;19920;52.242;20.940;2023-12-29T15:35:11;9.50;99.90
33594;DHT22;19920;52.242;20.940;2023-12-29T15:37:36;9.40;99.90
33594;DHT22;19920;52.242;20.940;2023-12-29T15:40:02;9.30;99.90
33594;DHT22;19920;52.242;20.940;2023-12-29T15:42:29;9.30;99.90
33594;DHT22;19920;52.242;20.940;2023-12-29T15:44:55;9.30;99.90
33594;DHT22;19920;52.242;20.940;2023-12-29T15:47:20;9.30;99.90